Time;durP1;ratioP1;P1;durP2;ratioP2;P2;SDS_P1;SDS_P2;PMS_P1;PMS_P2;Temp;Humidity;BMP_temperature;BMP_pressure;BME280_temperature;BME280_humidity;BME280_pressure;Samples;Min_cycle;Max_cycle;Signal;HPM_P1;HPM_P2
2021/12/12 00:00:17;;;;;;;67.93;24.05;;;3.80;99.90;;;;;;5001028;28;20096;-78
2021/12/12 00:02:59;;;;;;;70.25;25.17;;;3.80;99.90;;;;;;5012778;28;20840;-78
2021/12/12 00:05:41;;;;;;;57.20;24.10;;;3.90;99.90;;;;;;5013049;28;20474;-78
2021/12/12 00:08:09;;;;;;;69.43;25.63;;;3.80;99.90;;;;;;5000413;28;20085;-78
2021/12/12 00:10:39;;;;;;;76.65;25.02;;;3.80;99.90;;;;;;5014445;28;20045;-78
2021/12/12 00:13:14;;;;;;;62.95;24.58;;;3.80;99.90;;;;;;4990151;28;20129;-78
2021/12/12 00:15:41;;;;;;;67.75;26.75;;;3.80;99.90;;;;;;5014737;28;20046;-78
2021/12/12 00:18:09;;;;;;;71.15;25.48;;;3.90;99.90;;;;;;4992018;28;20411;-78
2021/12/12 00:20:36;;;;;;;61.75;26.20;;;3.80;99.90;;;;;;5016388;28;20551;-78
2021/12/12 00:23:05;;;;;;;74.45;26.67;;;3.80;99.90;;;;;;5011969;28;20054;-78
2021/12/12 00:25:39;;;;;;;71.22;27.08;;;3.80;99.90;;;;;;5016266;28;20077;-78
2021/12/12 00:28:07;;;;;;;67.80;25.80;;;3.90;99.90;;;;;;5022446;28;20085;-78
2021/12/12 00:30:34;;;;;;;79.15;29.65;;;3.90;99.90;;;;;;5012946;28;20157;-78
2021/12/12 00:33:02;;;;;;;79.43;27.77;;;3.80;99.90;;;;;;5010169;28;20057;-78
2021/12/12 00:35:30;;;;;;;70.65;27.48;;;3.90;99.90;;;;;;4993635;28;20082;-78
2021/12/12 00:38:02;;;;;;;65.93;26.58;;;3.90;99.90;;;;;;5010577;28;20049;-78
2021/12/12 00:40:33;;;;;;;80.30;27.83;;;3.90;99.90;;;;;;4993491;28;20146;-78
2021/12/12 00:43:11;;;;;;;72.38;27.45;;;3.80;99.90;;;;;;5010031;28;20065;-78
2021/12/12 00:45:39;;;;;;;75.13;27.10;;;3.80;99.90;;;;;;5015403;28;20081;-78
2021/12/12 00:48:10;;;;;;;82.10;29.25;;;3.90;99.90;;;;;;5001122;28;20137;-78
2021/12/12 00:50:40;;;;;;;76.97;27.20;;;3.80;99.90;;;;;;5013423;28;20138;-78
2021/12/12 00:53:09;;;;;;;84.75;27.33;;;3.80;99.90;;;;;;5014306;28;20410;-78
2021/12/12 00:55:38;;;;;;;80.80;27.20;;;3.80;99.90;;;;;;5012883;28;20125;-78
2021/12/12 00:58:06;;;;;;;95.75;29.88;;;3.80;99.90;;;;;;4992995;28;20050;-78
2021/12/12 01:00:39;;;;;;;85.75;28.00;;;3.90;99.90;;;;;;5007513;28;20137;-78
2021/12/12 01:03:09;;;;;;;82.28;28.33;;;3.80;99.90;;;;;;5001095;28;20138;-78
2021/12/12 01:05:42;;;;;;;85.43;29.02;;;3.90;99.90;;;;;;4999775;28;20116;-78
2021/12/12 01:08:10;;;;;;;80.78;29.90;;;3.80;99.90;;;;;;5003973;28;20113;-78
2021/12/12 01:10:50;;;;;;;104.40;32.60;;;3.80;99.90;;;;;;5010503;28;20097;-78
2021/12/12 01:13:17;;;;;;;96.20;32.22;;;3.80;99.90;;;;;;5010471;28;20101;-78
2021/12/12 01:15:58;;;;;;;81.65;29.10;;;3.80;99.90;;;;;;5009991;28;20482;-78
2021/12/12 01:18:30;;;;;;;76.75;29.10;;;3.80;99.90;;;;;;5011708;28;20165;-78
2021/12/12 01:21:11;;;;;;;97.43;30.92;;;3.80;99.90;;;;;;5003227;28;20078;-78
2021/12/12 01:23:44;;;;;;;97.32;34.70;;;3.80;99.90;;;;;;4994560;28;20088;-78
2021/12/12 01:26:12;;;;;;;91.15;31.70;;;3.80;99.90;;;;;;4994850;28;20054;-78
2021/12/12 01:28:45;;;;;;;109.30;32.10;;;3.80;99.90;;;;;;4974597;28;20133;-78
2021/12/12 01:31:16;;;;;;;96.90;33.92;;;3.80;99.90;;;;;;5011581;28;20129;-78
2021/12/12 01:33:43;;;;;;;98.18;32.15;;;3.80;99.90;;;;;;5011941;28;20510;-78
2021/12/12 01:36:26;;;;;;;110.60;32.90;;;3.80;99.90;;;;;;5011766;28;20089;-78
2021/12/12 01:38:56;;;;;;;87.80;30.67;;;3.80;99.90;;;;;;4993845;28;20141;-78
2021/12/12 01:41:32;;;;;;;107.18;33.17;;;3.80;99.90;;;;;;5014359;28;20515;-78
2021/12/12 01:44:11;;;;;;;106.85;32.45;;;3.80;99.90;;;;;;4996241;28;20155;-78
2021/12/12 01:46:44;;;;;;;102.72;33.08;;;3.80;99.90;;;;;;4995918;28;20149;-78
2021/12/12 01:49:24;;;;;;;116.10;32.70;;;3.80;99.90;;;;;;5009572;28;20128;-78
2021/12/12 01:51:53;;;;;;;94.72;30.90;;;3.80;99.90;;;;;;4995784;28;20085;-78
2021/12/12 01:54:26;;;;;;;103.93;33.25;;;3.80;99.90;;;;;;4979263;28;20854;-78
2021/12/12 01:56:59;;;;;;;106.80;35.75;;;3.80;99.90;;;;;;5015609;28;20077;-78
2021/12/12 01:59:31;;;;;;;104.82;33.05;;;3.80;99.90;;;;;;5015334;28;20073;-78
2021/12/12 02:02:07;;;;;;;103.20;33.50;;;3.70;99.90;;;;;;5010917;28;20129;-78
2021/12/12 02:04:38;;;;;;;100.10;34.55;;;3.70;99.90;;;;;;5000456;28;20491;-78
2021/12/12 02:07:07;;;;;;;106.10;34.00;;;3.80;99.90;;;;;;5014981;28;20073;-78
2021/12/12 02:09:35;;;;;;;101.40;33.97;;;3.70;99.90;;;;;;5014112;28;20166;-78
2021/12/12 02:12:04;;;;;;;101.68;35.55;;;3.70;99.90;;;;;;5016981;28;20056;-78
2021/12/12 02:14:40;;;;;;;94.38;32.53;;;3.70;99.90;;;;;;5016933;28;20692;-78
2021/12/12 02:17:26;;;;;;;109.38;33.00;;;3.70;99.90;;;;;;5007419;28;20733;-78
2021/12/12 02:20:14;;;;;;;114.82;34.08;;;3.70;99.90;;;;;;4993830;28;20121;-79
2021/12/12 02:36:20;;;;;;;96.18;34.67;;;3.70;99.90;;;;;;5014337;28;20084;-77
2021/12/12 02:38:50;;;;;;;106.25;33.95;;;3.70;99.90;;;;;;5012818;28;20460;-78
2021/12/12 02:41:21;;;;;;;109.13;34.17;;;3.70;99.90;;;;;;5013689;28;20555;-77
2021/12/12 02:43:57;;;;;;;116.68;36.03;;;3.70;99.90;;;;;;5013768;28;20088;-77
2021/12/12 02:46:34;;;;;;;101.45;34.40;;;3.70;99.90;;;;;;4994833;28;20141;-77
2021/12/12 02:49:10;;;;;;;122.03;37.17;;;3.60;99.90;;;;;;4996825;28;20053;-77
2021/12/12 02:51:40;;;;;;;116.72;35.33;;;3.60;99.90;;;;;;5013139;28;20077;-77
2021/12/12 02:54:08;;;;;;;116.88;36.13;;;3.60;99.90;;;;;;5010885;28;20059;-77
2021/12/12 02:56:39;;;;;;;116.55;37.13;;;3.60;99.90;;;;;;4989520;28;20083;-76
2021/12/12 02:59:10;;;;;;;119.38;36.17;;;3.60;99.90;;;;;;4996398;28;20484;-77
2021/12/12 03:01:47;;;;;;;116.93;35.55;;;3.60;99.90;;;;;;5030181;28;20846;-76
2021/12/12 03:04:15;;;;;;;123.50;34.25;;;3.60;99.90;;;;;;5023324;28;20065;-77
2021/12/12 03:06:48;;;;;;;129.02;35.88;;;3.60;99.90;;;;;;5013757;28;20100;-77
2021/12/12 03:09:20;;;;;;;119.97;35.05;;;3.50;99.90;;;;;;5014146;28;20103;-77
2021/12/12 03:11:52;;;;;;;131.10;34.78;;;3.50;99.90;;;;;;5013414;28;20452;-77
2021/12/12 03:14:19;;;;;;;118.32;34.50;;;3.50;99.90;;;;;;5013993;28;20077;-77
2021/12/12 03:16:50;;;;;;;131.25;36.70;;;3.50;99.90;;;;;;5012676;28;20425;-77
2021/12/12 03:19:20;;;;;;;121.10;33.75;;;3.50;99.90;;;;;;4994383;28;20081;-77
2021/12/12 03:21:48;;;;;;;123.13;32.78;;;3.40;99.90;;;;;;5009418;28;20081;-77
2021/12/12 03:24:20;;;;;;;121.55;34.05;;;3.40;99.90;;;;;;5013413;28;20519;-77
2021/12/12 03:26:49;;;;;;;119.25;31.67;;;3.40;99.90;;;;;;5013750;28;20144;-76
2021/12/12 03:29:17;;;;;;;132.05;32.22;;;3.40;99.90;;;;;;4994137;28;20125;-76
2021/12/12 03:31:48;;;;;;;111.15;30.80;;;3.40;99.90;;;;;;5027268;28;20080;-77
2021/12/12 03:34:19;;;;;;;113.88;31.92;;;3.40;99.90;;;;;;5011823;28;20060;-77
2021/12/12 03:36:49;;;;;;;118.82;33.72;;;3.30;99.90;;;;;;5011427;28;20081;-77
2021/12/12 03:39:23;;;;;;;116.90;29.75;;;3.40;99.90;;;;;;5011045;28;20126;-77
2021/12/12 03:41:53;;;;;;;109.25;30.95;;;3.30;99.90;;;;;;5010054;28;20128;-76
2021/12/12 03:44:23;;;;;;;110.90;31.77;;;3.30;99.90;;;;;;5011988;28;20138;-77
2021/12/12 03:46:53;;;;;;;118.28;30.73;;;3.30;99.90;;;;;;5013456;28;20054;-76
2021/12/12 03:49:21;;;;;;;122.82;31.70;;;3.30;99.90;;;;;;4995278;28;20050;-77
2021/12/12 03:51:51;;;;;;;115.57;29.60;;;3.30;99.90;;;;;;5012046;28;20121;-77
2021/12/12 03:54:18;;;;;;;120.82;32.47;;;3.30;99.90;;;;;;5012273;28;20237;-77
2021/12/12 03:56:46;;;;;;;110.78;29.60;;;3.30;99.90;;;;;;5011637;28;20053;-77
2021/12/12 03:59:14;;;;;;;108.75;30.35;;;3.30;99.90;;;;;;5012769;28;20081;-77
2021/12/12 04:01:48;;;;;;;103.05;29.58;;;3.30;99.90;;;;;;5013207;28;20100;-77
2021/12/12 04:04:23;;;;;;;119.25;31.83;;;3.20;99.90;;;;;;5002857;28;20454;-76
2021/12/12 04:06:52;;;;;;;104.78;30.02;;;3.30;99.90;;;;;;4997002;28;20133;-76
2021/12/12 04:09:20;;;;;;;101.35;28.65;;;3.30;99.90;;;;;;4975679;28;20125;-76
2021/12/12 04:11:51;;;;;;;105.35;30.30;;;3.30;99.90;;;;;;5009726;28;20463;-76
2021/12/12 04:14:19;;;;;;;106.95;27.88;;;3.20;99.90;;;;;;5012125;28;20069;-76
2021/12/12 04:16:50;;;;;;;113.90;28.40;;;3.20;99.90;;;;;;5012178;28;20133;-76
2021/12/12 04:19:17;;;;;;;116.70;30.70;;;3.20;99.90;;;;;;4992416;28;20137;-75
2021/12/12 04:21:45;;;;;;;117.82;30.23;;;3.20;99.90;;;;;;5000790;28;20060;-75
2021/12/12 04:24:18;;;;;;;111.95;31.33;;;3.20;99.90;;;;;;4983383;28;20093;-74
2021/12/12 04:26:45;;;;;;;109.03;29.63;;;3.20;99.90;;;;;;4979370;28;20108;-74
2021/12/12 04:29:14;;;;;;;115.05;30.00;;;3.20;99.90;;;;;;4986723;28;20184;-75
2021/12/12 04:31:47;;;;;;;114.63;30.40;;;3.20;99.90;;;;;;5005195;28;20060;-74
2021/12/12 04:34:14;;;;;;;120.78;28.95;;;3.20;99.90;;;;;;4997020;28;20168;-74
2021/12/12 04:36:45;;;;;;;113.55;30.33;;;3.20;99.90;;;;;;4989612;28;20458;-75
2021/12/12 04:39:28;;;;;;;101.18;29.73;;;3.20;99.90;;;;;;5003376;28;20456;-75
2021/12/12 04:42:01;;;;;;;125.75;32.30;;;3.20;99.90;;;;;;4986556;28;20145;-75
2021/12/12 04:44:32;;;;;;;106.50;28.10;;;3.20;99.90;;;;;;4998293;28;20073;-74
2021/12/12 04:50:24;;;;;;;113.38;28.63;;;3.30;99.90;;;;;;4996432;28;20054;-75
2021/12/12 04:53:14;;;;;;;101.20;27.50;;;3.20;99.90;;;;;;4999769;28;20130;-75
2021/12/12 04:55:54;;;;;;;112.38;28.13;;;3.20;99.90;;;;;;4985693;28;20060;-75
2021/12/12 04:58:41;;;;;;;102.85;28.13;;;3.30;99.90;;;;;;4999490;28;20128;-75
2021/12/12 05:01:27;;;;;;;111.30;25.98;;;3.30;99.90;;;;;;5001180;28;20752;-74
2021/12/12 05:03:54;;;;;;;109.93;27.85;;;3.20;99.90;;;;;;4999818;28;20061;-75
2021/12/12 05:06:33;;;;;;;99.60;29.33;;;3.30;99.90;;;;;;5000533;28;20169;-75
2021/12/12 05:09:08;;;;;;;106.55;25.95;;;3.20;99.90;;;;;;5003498;28;20085;-75
2021/12/12 05:11:40;;;;;;;104.20;26.77;;;3.30;99.90;;;;;;4998062;28;20046;-75
2021/12/12 05:14:21;;;;;;;106.75;26.30;;;3.30;99.90;;;;;;5000420;28;20050;-74
2021/12/12 05:16:53;;;;;;;97.05;27.13;;;3.30;99.90;;;;;;5002858;28;20073;-74
2021/12/12 05:19:25;;;;;;;109.22;26.88;;;3.30;99.90;;;;;;5002219;28;20746;-74
2021/12/12 05:21:58;;;;;;;109.40;27.80;;;3.30;99.90;;;;;;5007728;28;20148;-74
2021/12/12 05:24:27;;;;;;;99.72;27.30;;;3.30;99.90;;;;;;5003619;28;20086;-74
2021/12/12 05:27:11;;;;;;;111.78;27.10;;;3.30;99.90;;;;;;5006343;28;20136;-74
2021/12/12 05:29:54;;;;;;;96.53;26.45;;;3.40;99.90;;;;;;5017492;28;20060;-74
2021/12/12 05:32:22;;;;;;;108.60;27.92;;;3.30;99.90;;;;;;5001331;28;20484;-74
2021/12/12 05:34:51;;;;;;;96.97;25.35;;;3.40;99.90;;;;;;4988200;28;20154;-74
2021/12/12 05:37:20;;;;;;;100.10;27.58;;;3.40;99.90;;;;;;5028919;28;20077;-74
2021/12/12 05:39:47;;;;;;;101.93;29.08;;;3.40;99.90;;;;;;5002043;28;20046;-74
2021/12/12 05:42:15;;;;;;;98.30;25.88;;;3.40;99.90;;;;;;5008689;28;20129;-74
2021/12/12 05:44:43;;;;;;;108.47;28.10;;;3.40;99.90;;;;;;5008211;28;20466;-74
2021/12/12 05:47:11;;;;;;;103.95;26.20;;;3.30;99.90;;;;;;4991421;28;20066;-74
2021/12/12 05:49:41;;;;;;;107.82;27.40;;;3.40;99.90;;;;;;4990389;28;20049;-74
2021/12/12 05:52:11;;;;;;;107.93;26.08;;;3.40;99.90;;;;;;4990246;28;20125;-74
2021/12/12 05:54:39;;;;;;;109.03;26.13;;;3.30;99.90;;;;;;4982605;28;20154;-74
2021/12/12 05:57:09;;;;;;;116.22;28.85;;;3.40;99.90;;;;;;5004646;28;20125;-74
2021/12/12 05:59:37;;;;;;;107.13;27.98;;;3.40;99.90;;;;;;5000008;28;20120;-74
2021/12/12 06:02:06;;;;;;;119.75;26.55;;;3.40;99.90;;;;;;5007703;28;20550;-74
2021/12/12 06:04:35;;;;;;;108.32;27.98;;;3.40;99.90;;;;;;5006331;28;20050;-74
2021/12/12 06:07:06;;;;;;;115.65;27.95;;;3.40;99.90;;;;;;5007310;28;20068;-74
2021/12/12 06:09:34;;;;;;;111.90;28.50;;;3.40;99.90;;;;;;5001407;28;20120;-74
2021/12/12 06:12:03;;;;;;;127.78;28.52;;;3.40;99.90;;;;;;5008618;28;20148;-74
2021/12/12 06:14:35;;;;;;;127.20;26.98;;;3.40;99.90;;;;;;5005747;28;20057;-74
2021/12/12 06:17:07;;;;;;;117.95;29.15;;;3.40;99.90;;;;;;5008339;28;20145;-74
2021/12/12 06:19:34;;;;;;;119.53;28.67;;;3.40;99.90;;;;;;5007741;28;20046;-74
2021/12/12 06:22:02;;;;;;;121.80;28.27;;;3.40;99.90;;;;;;5005697;28;20068;-74
2021/12/12 06:24:30;;;;;;;117.78;29.27;;;3.40;99.90;;;;;;4997715;28;20072;-74
2021/12/12 06:27:09;;;;;;;121.18;30.13;;;3.40;99.90;;;;;;4993383;28;20149;-74
2021/12/12 06:29:37;;;;;;;105.13;26.95;;;3.40;99.90;;;;;;5004146;28;20049;-74
2021/12/12 06:32:04;;;;;;;123.90;29.05;;;3.40;99.90;;;;;;4987283;28;20129;-74
2021/12/12 06:34:31;;;;;;;97.47;27.10;;;3.40;99.90;;;;;;4980177;28;20050;-75
2021/12/12 06:36:58;;;;;;;117.68;28.95;;;3.40;99.90;;;;;;5006740;28;20232;-75
2021/12/12 06:39:25;;;;;;;119.15;28.33;;;3.40;99.90;;;;;;5001146;28;20152;-75
2021/12/12 06:41:53;;;;;;;115.57;29.25;;;3.40;99.90;;;;;;5008040;28;20136;-75
2021/12/12 06:44:20;;;;;;;112.28;28.80;;;3.40;99.90;;;;;;5007492;28;20137;-75
2021/12/12 06:46:47;;;;;;;104.63;27.33;;;3.40;99.90;;;;;;4990710;28;20081;-75
2021/12/12 06:49:17;;;;;;;99.95;26.98;;;3.40;99.90;;;;;;5003891;28;20053;-75
2021/12/12 06:51:51;;;;;;;107.05;26.50;;;3.50;99.90;;;;;;5000082;28;20141;-75
2021/12/12 06:54:21;;;;;;;92.40;27.17;;;3.50;99.90;;;;;;5005414;28;20042;-75
2021/12/12 06:56:50;;;;;;;115.95;26.98;;;3.40;99.90;;;;;;4997187;28;20060;-75
2021/12/12 06:59:17;;;;;;;103.15;26.58;;;3.40;99.90;;;;;;4997631;28;20062;-75
2021/12/12 07:01:44;;;;;;;106.45;26.17;;;3.50;99.90;;;;;;4983276;28;20916;-75
2021/12/12 07:04:13;;;;;;;108.00;28.05;;;3.50;99.90;;;;;;5002677;28;20058;-75
2021/12/12 07:06:41;;;;;;;100.97;27.40;;;3.50;99.90;;;;;;5005003;28;20137;-75
2021/12/12 07:09:09;;;;;;;107.43;26.52;;;3.50;99.90;;;;;;5006692;28;20096;-74
2021/12/12 07:11:38;;;;;;;110.55;27.85;;;3.50;99.90;;;;;;5006440;28;20078;-74
2021/12/12 07:14:08;;;;;;;101.45;28.75;;;3.50;99.90;;;;;;4999617;28;20133;-75
2021/12/12 07:16:35;;;;;;;113.43;29.10;;;3.50;99.90;;;;;;5006020;28;20156;-75
2021/12/12 07:19:05;;;;;;;121.40;27.02;;;3.60;99.90;;;;;;5006588;28;20058;-75
2021/12/12 07:21:32;;;;;;;111.15;27.75;;;3.60;99.90;;;;;;4982832;28;20133;-74
2021/12/12 07:24:02;;;;;;;114.82;27.45;;;3.60;99.90;;;;;;5004482;28;20497;-75
2021/12/12 07:26:29;;;;;;;107.40;28.08;;;3.60;99.90;;;;;;4988041;28;20153;-75
2021/12/12 07:28:58;;;;;;;110.95;28.25;;;3.60;99.90;;;;;;5014792;28;20041;-75
2021/12/12 07:31:30;;;;;;;101.18;26.98;;;3.60;99.90;;;;;;5010284;28;20092;-75
2021/12/12 07:34:00;;;;;;;104.07;27.45;;;3.70;99.90;;;;;;4999034;28;20402;-75
2021/12/12 07:36:32;;;;;;;104.82;28.45;;;3.70;99.90;;;;;;4985454;28;20125;-75
2021/12/12 07:39:14;;;;;;;106.93;28.40;;;3.70;99.90;;;;;;4988461;28;20101;-75
2021/12/12 07:41:43;;;;;;;109.00;27.80;;;3.70;99.90;;;;;;5006085;28;20052;-75
2021/12/12 07:44:13;;;;;;;111.82;28.00;;;3.70;99.90;;;;;;5004744;28;20420;-75
2021/12/12 07:46:42;;;;;;;104.80;27.17;;;3.70;99.90;;;;;;4990629;28;20144;-76
2021/12/12 07:49:09;;;;;;;119.05;28.27;;;3.70;99.90;;;;;;5006569;28;20850;-76
2021/12/12 07:51:38;;;;;;;116.53;28.80;;;3.70;99.90;;;;;;4989079;28;20153;-77
2021/12/12 07:54:07;;;;;;;125.28;29.02;;;3.70;99.90;;;;;;5006569;28;20081;-77
2021/12/12 07:56:37;;;;;;;112.90;28.98;;;3.80;99.90;;;;;;4999053;28;20159;-76
2021/12/12 07:59:06;;;;;;;104.38;27.55;;;3.80;99.90;;;;;;5016205;28;20764;-77
2021/12/12 08:01:34;;;;;;;113.35;28.30;;;3.80;99.90;;;;;;5006123;28;20077;-77
2021/12/12 08:04:02;;;;;;;114.57;28.67;;;3.80;99.90;;;;;;5007350;28;20752;-77
2021/12/12 08:06:30;;;;;;;125.35;30.10;;;3.80;99.90;;;;;;4990597;28;20050;-77
2021/12/12 08:08:58;;;;;;;113.15;28.98;;;3.80;99.90;;;;;;4991263;28;20125;-77
2021/12/12 08:11:28;;;;;;;120.43;30.50;;;3.80;99.90;;;;;;5008194;28;20084;-77
2021/12/12 08:13:57;;;;;;;119.20;31.55;;;3.80;99.90;;;;;;5007838;28;20729;-77
2021/12/12 08:16:24;;;;;;;126.70;33.13;;;3.80;99.90;;;;;;5001743;28;20099;-77
2021/12/12 08:18:55;;;;;;;123.35;31.65;;;3.80;99.90;;;;;;4991961;28;20211;-77
2021/12/12 08:21:22;;;;;;;126.03;32.70;;;3.80;99.90;;;;;;5009596;28;20137;-78
2021/12/12 08:23:49;;;;;;;109.20;31.42;;;3.80;99.90;;;;;;4990897;28;20134;-78
2021/12/12 08:26:18;;;;;;;121.40;29.85;;;3.80;99.90;;;;;;4998018;28;20046;-78
2021/12/12 08:28:45;;;;;;;127.45;33.38;;;3.80;99.90;;;;;;5016817;28;20875;-77
2021/12/12 08:31:15;;;;;;;116.30;30.90;;;3.80;99.90;;;;;;5009579;28;20080;-77
2021/12/12 08:33:43;;;;;;;114.82;29.35;;;3.80;99.90;;;;;;4990933;28;20733;-77
2021/12/12 08:36:10;;;;;;;120.07;30.85;;;3.80;99.90;;;;;;5005799;28;20097;-77
2021/12/12 08:38:37;;;;;;;116.47;30.98;;;3.80;99.90;;;;;;5007278;28;20054;-78
2021/12/12 08:41:05;;;;;;;119.93;31.20;;;3.80;99.90;;;;;;5008026;28;20547;-78
2021/12/12 08:43:33;;;;;;;122.60;30.25;;;3.90;99.90;;;;;;5008595;28;20089;-77
2021/12/12 08:46:06;;;;;;;120.22;30.30;;;3.90;99.90;;;;;;5003316;28;20146;-77
2021/12/12 08:48:39;;;;;;;135.23;30.48;;;3.90;99.90;;;;;;4997864;28;20136;-77
2021/12/12 08:51:12;;;;;;;118.30;30.77;;;3.90;99.90;;;;;;5006616;28;20058;-77
2021/12/12 08:53:41;;;;;;;121.65;32.08;;;3.90;99.90;;;;;;4990701;28;20132;-77
2021/12/12 08:56:16;;;;;;;124.93;31.40;;;3.90;99.90;;;;;;4997089;28;20132;-77
2021/12/12 08:58:43;;;;;;;113.22;32.15;;;3.90;99.90;;;;;;4989247;28;20070;-77
2021/12/12 09:01:15;;;;;;;113.45;30.83;;;3.90;99.90;;;;;;4982407;28;20046;-78
2021/12/12 09:03:55;;;;;;;116.93;29.52;;;3.90;99.90;;;;;;5005202;28;20132;-78
2021/12/12 09:06:36;;;;;;;123.20;31.88;;;4.00;99.90;;;;;;4986725;28;20089;-78
2021/12/12 09:09:22;;;;;;;127.85;32.80;;;3.90;99.90;;;;;;4989717;28;20058;-78
2021/12/12 09:11:51;;;;;;;;;;;4.00;99.90;;;;;;5007665;28;20201;-78
2021/12/12 09:14:21;;;;;;;117.00;31.58;;;4.00;99.90;;;;;;5008763;28;20627;-78
2021/12/12 09:16:55;;;;;;;121.03;32.05;;;4.00;99.90;;;;;;4992183;28;20077;-78
2021/12/12 09:19:29;;;;;;;136.65;32.63;;;4.10;99.90;;;;;;4991847;28;20061;-79
2021/12/12 09:22:11;;;;;;;117.72;31.05;;;4.00;99.90;;;;;;5007684;28;20156;-78
2021/12/12 09:24:46;;;;;;;133.98;33.25;;;4.10;99.90;;;;;;4990663;28;20050;-79
2021/12/12 09:27:22;;;;;;;138.13;34.00;;;4.00;99.90;;;;;;4992125;28;20176;-78
2021/12/12 09:30:11;;;;;;;127.70;33.65;;;4.00;99.90;;;;;;4991841;28;20085;-78
2021/12/12 09:32:47;;;;;;;137.82;35.22;;;4.10;99.90;;;;;;4988231;28;20823;-79
2021/12/12 09:35:20;;;;;;;119.75;31.73;;;4.00;99.90;;;;;;4995566;28;20519;-78
2021/12/12 09:37:58;;;;;;;131.93;34.40;;;4.10;99.90;;;;;;5005051;28;20121;-78
2021/12/12 09:40:27;;;;;;;123.80;32.28;;;4.10;99.90;;;;;;5007827;28;20145;-78
2021/12/12 09:43:25;;;;;;;119.75;32.25;;;4.10;99.90;;;;;;5008124;28;20089;-79
2021/12/12 09:46:32;;;;;;;122.28;30.90;;;4.10;99.90;;;;;;4988477;28;20587;-78
2021/12/12 09:52:50;;;;;;;119.28;30.40;;;4.10;99.90;;;;;;4996195;28;20141;-76
2021/12/12 09:55:24;;;;;;;106.50;30.50;;;4.10;99.90;;;;;;5003940;28;20149;-76
2021/12/12 09:58:11;;;;;;;128.07;33.30;;;4.10;99.90;;;;;;5003920;28;20640;-77
2021/12/12 10:00:51;;;;;;;125.70;31.08;;;4.10;99.90;;;;;;5002343;28;20129;-75
2021/12/12 10:03:25;;;;;;;114.00;31.27;;;4.10;99.90;;;;;;5001353;28;20058;-75
2021/12/12 10:06:02;;;;;;;129.60;31.85;;;4.20;99.90;;;;;;5002637;28;20067;-76
2021/12/12 10:08:47;;;;;;;108.65;27.83;;;4.20;99.90;;;;;;5000294;28;20937;-76
2021/12/12 10:11:24;;;;;;;101.97;30.30;;;4.20;99.90;;;;;;5005486;28;20880;-77
2021/12/12 10:14:03;;;;;;;117.45;30.88;;;4.30;99.90;;;;;;5011401;28;20116;-76
2021/12/12 10:17:00;;;;;;;114.20;30.45;;;4.30;99.90;;;;;;4999231;28;20041;-77
2021/12/12 10:19:32;;;;;;;103.65;28.65;;;4.30;99.90;;;;;;5009289;28;20084;-75
2021/12/12 10:22:01;;;;;;;112.18;29.77;;;4.40;99.90;;;;;;4981930;28;20128;-75
2021/12/12 10:24:34;;;;;;;102.55;28.80;;;4.40;99.90;;;;;;4995859;28;20144;-75
2021/12/12 10:27:12;;;;;;;115.70;30.60;;;4.40;99.90;;;;;;5000152;28;20077;-76
2021/12/12 10:30:14;;;;;;;116.25;30.38;;;4.40;99.90;;;;;;4998946;28;20056;-75
2021/12/12 10:33:05;;;;;;;103.40;29.70;;;4.40;99.90;;;;;;4996934;28;20562;-76
2021/12/12 10:35:50;;;;;;;115.95;29.20;;;4.40;99.90;;;;;;4996393;28;20069;-76
2021/12/12 10:38:22;;;;;;;98.65;28.08;;;4.40;99.90;;;;;;4997244;28;20522;-76
2021/12/12 10:41:03;;;;;;;97.53;27.63;;;4.50;99.90;;;;;;5000919;28;20130;-76
2021/12/12 10:43:42;;;;;;;96.85;26.27;;;4.50;99.90;;;;;;5002915;28;21459;-79
2021/12/12 10:46:44;;;;;;;105.15;27.60;;;4.40;99.90;;;;;;5005952;28;20133;-79
2021/12/12 10:49:40;;;;;;;80.97;24.83;;;4.50;99.90;;;;;;4972427;28;20116;-81
2021/12/12 10:52:11;;;;;;;;;;;4.50;99.90;;;;;;4992878;28;20078;-79
2021/12/12 10:54:45;;;;;;;92.10;23.92;;;4.50;99.90;;;;;;5004571;28;19964;-78
2021/12/12 10:57:27;;;;;;;89.53;24.75;;;4.50;99.90;;;;;;5000012;28;20082;-76
2021/12/12 11:00:36;;;;;;;117.85;26.45;;;4.50;99.90;;;;;;5009204;28;20157;-76
2021/12/12 11:06:44;;;;;;;65.88;21.88;;;4.40;99.90;;;;;;4999486;28;20049;-73
2021/12/12 11:09:26;;;;;;;72.63;21.00;;;4.40;99.90;;;;;;4987351;28;20132;-75
2021/12/12 11:12:07;;;;;;;70.93;20.67;;;4.50;99.90;;;;;;4995277;28;20165;-74
2021/12/12 11:14:46;;;;;;;80.63;22.48;;;4.50;99.90;;;;;;5002936;28;20129;-74
2021/12/12 11:17:19;;;;;;;74.15;21.13;;;4.40;99.90;;;;;;4983940;28;20069;-74
2021/12/12 11:19:54;;;;;;;89.95;23.55;;;4.40;99.90;;;;;;5004226;28;20136;-74
2021/12/12 11:22:32;;;;;;;71.85;21.90;;;4.50;99.90;;;;;;5001901;28;20073;-74
2021/12/12 11:25:05;;;;;;;79.78;20.63;;;4.50;99.90;;;;;;5002892;28;20779;-74
2021/12/12 11:27:48;;;;;;;60.53;20.33;;;4.40;99.90;;;;;;5005638;28;20133;-74
2021/12/12 11:30:26;;;;;;;77.50;20.17;;;4.40;99.90;;;;;;4988154;28;20050;-75
2021/12/12 11:32:55;;;;;;;70.30;21.08;;;4.40;99.90;;;;;;5003064;28;20170;-74
2021/12/12 11:35:25;;;;;;;69.03;19.58;;;4.40;99.90;;;;;;4995503;28;20748;-74
2021/12/12 11:37:58;;;;;;;75.90;21.02;;;4.40;99.90;;;;;;4995794;28;20077;-74
2021/12/12 11:40:39;;;;;;;63.47;18.88;;;4.40;99.90;;;;;;4997281;28;20537;-74
2021/12/12 11:43:33;;;;;;;70.15;20.00;;;4.50;99.90;;;;;;5002930;28;20136;-75
2021/12/12 11:46:09;;;;;;;77.70;18.08;;;4.40;99.90;;;;;;4998848;28;20107;-75
2021/12/12 11:48:51;;;;;;;72.25;20.95;;;4.30;99.90;;;;;;4997506;28;20050;-74
2021/12/12 11:51:42;;;;;;;71.50;20.13;;;4.40;99.90;;;;;;5009399;28;20073;-74
2021/12/12 11:54:36;;;;;;;62.58;18.33;;;4.40;99.90;;;;;;4995848;28;20546;-74
2021/12/12 11:57:23;;;;;;;74.72;19.33;;;4.50;99.90;;;;;;4998105;28;20137;-74
2021/12/12 11:59:59;;;;;;;72.30;17.80;;;4.50;99.90;;;;;;4999766;28;20107;-74
2021/12/12 12:03:04;;;;;;;73.60;20.33;;;4.50;99.90;;;;;;5000962;28;20037;-73
2021/12/12 12:06:02;;;;;;;65.35;21.63;;;4.50;99.90;;;;;;5001130;28;20053;-73
2021/12/12 12:08:58;;;;;;;58.70;19.80;;;4.50;99.90;;;;;;4996945;28;20074;-73
2021/12/12 12:11:47;;;;;;;57.92;17.10;;;4.50;99.90;;;;;;5005883;28;20045;-74
2021/12/12 12:14:49;;;;;;;57.30;16.77;;;4.50;99.90;;;;;;5002011;28;20050;-74
2021/12/12 12:17:41;;;;;;;57.92;16.98;;;4.50;99.90;;;;;;5002851;28;20052;-74
2021/12/12 12:20:30;;;;;;;48.80;15.65;;;4.50;99.90;;;;;;4987492;28;20426;-74
2021/12/12 12:23:19;;;;;;;53.28;16.02;;;4.50;99.90;;;;;;5005605;28;20134;-74
2021/12/12 12:28:56;;;;;;;51.88;15.95;;;4.50;99.90;;;;;;5008151;28;20081;-74
2021/12/12 12:31:39;;;;;;;53.35;14.43;;;4.50;99.90;;;;;;5004560;28;20060;-74
2021/12/12 12:34:18;;;;;;;50.47;15.57;;;4.50;99.90;;;;;;5004533;28;20579;-74
2021/12/12 12:37:26;;;;;;;59.33;15.20;;;4.50;99.90;;;;;;5006088;28;20502;-73
2021/12/12 12:40:30;;;;;;;50.90;15.75;;;4.50;99.90;;;;;;4996604;28;20141;-73
2021/12/12 12:43:35;;;;;;;54.63;15.50;;;4.50;99.90;;;;;;5003196;28;20145;-73
2021/12/12 12:46:39;;;;;;;56.60;15.80;;;4.50;99.90;;;;;;4998556;28;20178;-74
2021/12/12 12:49:44;;;;;;;46.33;15.85;;;4.50;99.90;;;;;;5005508;28;20053;-74
2021/12/12 12:52:33;;;;;;;47.20;14.98;;;4.60;99.90;;;;;;4999909;28;20086;-73
2021/12/12 12:55:19;;;;;;;62.92;15.85;;;4.60;99.90;;;;;;4967567;28;20413;-74
2021/12/12 12:57:47;;;;;;;49.63;14.80;;;4.60;99.90;;;;;;5000001;28;20544;-74
2021/12/12 13:00:18;;;;;;;54.42;15.32;;;4.60;99.90;;;;;;5001557;28;20153;-74
2021/12/12 13:03:01;;;;;;;42.42;15.77;;;4.60;99.90;;;;;;5005612;28;20144;-74
2021/12/12 13:06:02;;;;;;;51.63;15.73;;;4.60;99.90;;;;;;4987284;28;20049;-74
2021/12/12 13:08:33;;;;;;;49.08;17.17;;;4.60;99.90;;;;;;5005029;28;20149;-74
2021/12/12 13:11:04;;;;;;;60.00;16.48;;;4.60;99.90;;;;;;5004688;28;20077;-74
2021/12/12 13:13:50;;;;;;;50.22;16.20;;;4.60;99.90;;;;;;5004864;28;20133;-74
2021/12/12 13:16:32;;;;;;;51.17;16.42;;;4.60;99.90;;;;;;4999994;28;20125;-74
2021/12/12 13:19:03;;;;;;;46.03;16.17;;;4.60;99.90;;;;;;4986076;28;20074;-75
2021/12/12 13:21:52;;;;;;;44.42;15.23;;;4.60;99.90;;;;;;4987715;28;20081;-75
2021/12/12 13:24:24;;;;;;;39.97;16.17;;;4.60;99.90;;;;;;5001572;28;20050;-74
2021/12/12 13:27:25;;;;;;;52.50;16.95;;;4.60;99.90;;;;;;5003567;28;20507;-75
2021/12/12 13:30:04;;;;;;;46.72;16.27;;;4.60;99.90;;;;;;5001473;28;20131;-74
2021/12/12 13:32:55;;;;;;;41.80;14.90;;;4.60;99.90;;;;;;4996797;28;20041;-74
2021/12/12 13:35:31;;;;;;;51.03;16.30;;;4.60;99.90;;;;;;4982251;28;20137;-74